sensor_id;sensor_type;location;lat;lon;timestamp;pressure;altitude;pressure_sealevel;temperature;humidity
19286;BME280;9776;50.798;6.430;2023-04-23T00:00:33;99456.44;;;14.09;65.08
19286;BME280;9776;50.798;6.430;2023-04-23T00:03:04;99456.13;;;13.98;65.63
19286;BME280;9776;50.798;6.430;2023-04-23T00:05:34;99458.34;;;13.94;65.55
19286;BME280;9776;50.798;6.430;2023-04-23T00:08:03;99448.19;;;13.98;65.70
19286;BME280;9776;50.798;6.430;2023-04-23T00:10:30;99452.09;;;14.02;65.42
19286;BME280;9776;50.798;6.430;2023-04-23T00:12:57;99451.88;;;14.03;65.35
19286;BME280;9776;50.798;6.430;2023-04-23T00:15:25;99446.59;;;14.03;65.40
19286;BME280;9776;50.798;6.430;2023-04-23T00:17:52;99452.72;;;14.04;65.26
19286;BME280;9776;50.798;6.430;2023-04-23T00:20:18;99450.06;;;14.04;65.09
19286;BME280;9776;50.798;6.430;2023-04-23T00:22:45;99447.78;;;14.01;65.14
19286;BME280;9776;50.798;6.430;2023-04-23T00:25:13;99451.03;;;13.96;64.84
19286;BME280;9776;50.798;6.430;2023-04-23T00:27:39;99448.78;;;13.93;64.65
19286;BME280;9776;50.798;6.430;2023-04-23T00:30:07;99449.31;;;13.89;64.70
19286;BME280;9776;50.798;6.430;2023-04-23T00:32:34;99448.88;;;13.85;64.79
19286;BME280;9776;50.798;6.430;2023-04-23T00:35:01;99441.94;;;13.84;65.07
19286;BME280;9776;50.798;6.430;2023-04-23T00:37:28;99448.47;;;13.82;65.06
19286;BME280;9776;50.798;6.430;2023-04-23T00:39:57;99446.00;;;13.80;65.74
19286;BME280;9776;50.798;6.430;2023-04-23T00:42:25;99436.78;;;13.76;65.34
19286;BME280;9776;50.798;6.430;2023-04-23T00:44:52;99441.66;;;13.73;65.24
19286;BME280;9776;50.798;6.430;2023-04-23T00:47:20;99446.06;;;13.65;65.15
19286;BME280;9776;50.798;6.430;2023-04-23T00:49:47;99437.50;;;13.63;65.18
19286;BME280;9776;50.798;6.430;2023-04-23T00:52:15;99425.19;;;13.56;65.22
19286;BME280;9776;50.798;6.430;2023-04-23T00:54:41;99430.66;;;13.54;65.23
19286;BME280;9776;50.798;6.430;2023-04-23T00:57:08;99434.72;;;13.50;65.50
19286;BME280;9776;50.798;6.430;2023-04-23T00:59:36;99427.16;;;13.47;65.62
19286;BME280;9776;50.798;6.430;2023-04-23T01:02:03;99425.69;;;13.45;65.96
19286;BME280;9776;50.798;6.430;2023-04-23T01:04:30;99426.50;;;13.45;66.03
19286;BME280;9776;50.798;6.430;2023-04-23T01:06:58;99423.84;;;13.45;65.98
19286;BME280;9776;50.798;6.430;2023-04-23T01:09:25;99421.19;;;13.45;65.87
19286;BME280;9776;50.798;6.430;2023-04-23T01:11:52;99425.06;;;13.43;65.77
19286;BME280;9776;50.798;6.430;2023-04-23T01:14:19;99420.97;;;13.40;65.95
19286;BME280;9776;50.798;6.430;2023-04-23T01:16:48;99422.09;;;13.31;65.88
19286;BME280;9776;50.798;6.430;2023-04-23T01:19:16;99426.16;;;13.27;66.03
19286;BME280;9776;50.798;6.430;2023-04-23T01:21:44;99426.69;;;13.23;65.90
19286;BME280;9776;50.798;6.430;2023-04-23T01:24:12;99421.31;;;13.16;65.99
19286;BME280;9776;50.798;6.430;2023-04-23T01:26:38;99421.44;;;13.08;65.77
19286;BME280;9776;50.798;6.430;2023-04-23T01:29:05;99420.91;;;12.98;66.02
19286;BME280;9776;50.798;6.430;2023-04-23T01:31:32;99418.16;;;12.91;65.71
19286;BME280;9776;50.798;6.430;2023-04-23T01:33:59;99413.63;;;12.85;65.77
19286;BME280;9776;50.798;6.430;2023-04-23T01:36:27;99411.16;;;12.84;65.43
19286;BME280;9776;50.798;6.430;2023-04-23T01:38:53;99405.78;;;12.77;65.38
19286;BME280;9776;50.798;6.430;2023-04-23T01:41:21;99406.97;;;12.75;65.34
19286;BME280;9776;50.798;6.430;2023-04-23T01:43:48;99408.59;;;12.76;65.23
19286;BME280;9776;50.798;6.430;2023-04-23T01:46:15;99401.44;;;12.70;65.10
19286;BME280;9776;50.798;6.430;2023-04-23T01:48:42;99399.16;;;12.67;65.15
19286;BME280;9776;50.798;6.430;2023-04-23T01:51:08;99395.38;;;12.61;65.07
19286;BME280;9776;50.798;6.430;2023-04-23T01:53:35;99392.84;;;12.53;65.36
19286;BME280;9776;50.798;6.430;2023-04-23T01:56:02;99398.25;;;12.45;65.14
19286;BME280;9776;50.798;6.430;2023-04-23T01:58:30;99400.06;;;12.30;65.48
19286;BME280;9776;50.798;6.430;2023-04-23T02:00:57;99399.69;;;12.18;65.69
19286;BME280;9776;50.798;6.430;2023-04-23T02:03:23;99391.75;;;12.18;65.80
19286;BME280;9776;50.798;6.430;2023-04-23T02:05:52;99393.63;;;12.18;65.65
19286;BME280;9776;50.798;6.430;2023-04-23T02:08:20;99393.69;;;12.10;65.86
19286;BME280;9776;50.798;6.430;2023-04-23T02:10:46;99396.88;;;11.90;66.13
19286;BME280;9776;50.798;6.430;2023-04-23T02:13:13;99391.38;;;11.92;66.02
19286;BME280;9776;50.798;6.430;2023-04-23T02:15:41;99394.97;;;11.99;65.89
19286;BME280;9776;50.798;6.430;2023-04-23T02:18:08;99382.19;;;12.03;65.67
19286;BME280;9776;50.798;6.430;2023-04-23T02:20:35;99396.16;;;12.11;65.53
19286;BME280;9776;50.798;6.430;2023-04-23T02:23:05;99387.66;;;12.16;65.16
19286;BME280;9776;50.798;6.430;2023-04-23T02:25:32;99392.59;;;12.19;65.03
19286;BME280;9776;50.798;6.430;2023-04-23T02:27:59;99387.94;;;12.21;64.72
19286;BME280;9776;50.798;6.430;2023-04-23T02:30:29;99378.38;;;12.20;64.88
19286;BME280;9776;50.798;6.430;2023-04-23T02:32:57;99383.47;;;12.21;64.73
19286;BME280;9776;50.798;6.430;2023-04-23T02:35:24;99379.47;;;12.25;64.60
19286;BME280;9776;50.798;6.430;2023-04-23T02:37:51;99374.63;;;12.29;64.47
19286;BME280;9776;50.798;6.430;2023-04-23T02:40:18;99376.72;;;12.33;64.41
19286;BME280;9776;50.798;6.430;2023-04-23T02:42:45;99370.69;;;12.39;64.06
19286;BME280;9776;50.798;6.430;2023-04-23T02:45:11;99375.25;;;12.45;63.96
19286;BME280;9776;50.798;6.430;2023-04-23T02:47:38;99374.44;;;12.45;64.14
19286;BME280;9776;50.798;6.430;2023-04-23T02:50:07;99373.88;;;12.49;64.24
19286;BME280;9776;50.798;6.430;2023-04-23T02:52:34;99374.69;;;12.50;64.28
19286;BME280;9776;50.798;6.430;2023-04-23T02:55:01;99366.00;;;12.56;64.24
19286;BME280;9776;50.798;6.430;2023-04-23T02:57:28;99371.38;;;12.63;64.35
19286;BME280;9776;50.798;6.430;2023-04-23T02:59:54;99364.53;;;12.68;64.30
19286;BME280;9776;50.798;6.430;2023-04-23T03:02:21;99366.22;;;12.76;64.28
19286;BME280;9776;50.798;6.430;2023-04-23T03:04:48;99364.03;;;12.79;64.04
19286;BME280;9776;50.798;6.430;2023-04-23T03:07:15;99360.66;;;12.85;63.84
19286;BME280;9776;50.798;6.430;2023-04-23T03:09:42;99368.44;;;12.87;64.05
19286;BME280;9776;50.798;6.430;2023-04-23T03:12:09;99366.03;;;12.92;63.80
19286;BME280;9776;50.798;6.430;2023-04-23T03:14:35;99370.94;;;12.95;63.75
19286;BME280;9776;50.798;6.430;2023-04-23T03:17:02;99373.41;;;12.96;63.58
19286;BME280;9776;50.798;6.430;2023-04-23T03:19:29;99364.91;;;13.01;63.66
19286;BME280;9776;50.798;6.430;2023-04-23T03:21:55;99361.22;;;13.02;63.51
19286;BME280;9776;50.798;6.430;2023-04-23T03:24:23;99357.19;;;13.06;63.05
19286;BME280;9776;50.798;6.430;2023-04-23T03:26:50;99360.69;;;13.06;63.05
19286;BME280;9776;50.798;6.430;2023-04-23T03:29:16;99357.84;;;13.08;62.90
19286;BME280;9776;50.798;6.430;2023-04-23T03:31:43;99355.22;;;13.08;63.02
19286;BME280;9776;50.798;6.430;2023-04-23T03:34:10;99356.22;;;13.07;63.08
19286;BME280;9776;50.798;6.430;2023-04-23T03:36:36;99355.22;;;13.08;63.04
19286;BME280;9776;50.798;6.430;2023-04-23T03:39:03;99361.50;;;13.07;62.99
19286;BME280;9776;50.798;6.430;2023-04-23T03:41:31;99374.75;;;13.07;63.09
19286;BME280;9776;50.798;6.430;2023-04-23T03:43:57;99356.38;;;13.05;63.19
19286;BME280;9776;50.798;6.430;2023-04-23T03:46:24;99361.69;;;13.05;63.10
19286;BME280;9776;50.798;6.430;2023-04-23T03:48:50;99359.69;;;13.07;62.92
19286;BME280;9776;50.798;6.430;2023-04-23T03:51:17;99353.22;;;13.10;62.90
19286;BME280;9776;50.798;6.430;2023-04-23T03:53:44;99353.84;;;13.12;62.98
19286;BME280;9776;50.798;6.430;2023-04-23T03:56:11;99359.56;;;13.16;62.80
19286;BME280;9776;50.798;6.430;2023-04-23T03:58:39;99362.66;;;13.19;62.94
19286;BME280;9776;50.798;6.430;2023-04-23T04:01:05;99354.06;;;13.17;62.80
19286;BME280;9776;50.798;6.430;2023-04-23T04:03:32;99359.38;;;13.17;62.90
19286;BME280;9776;50.798;6.430;2023-04-23T04:05:59;99355.72;;;13.18;62.92
19286;BME280;9776;50.798;6.430;2023-04-23T04:08:26;99353.25;;;13.17;62.96
19286;BME280;9776;50.798;6.430;2023-04-23T04:10:53;99357.34;;;13.19;62.95
19286;BME280;9776;50.798;6.430;2023-04-23T04:13:20;99359.00;;;13.20;63.22
19286;BME280;9776;50.798;6.430;2023-04-23T04:15:48;99358.81;;;13.22;63.10
19286;BME280;9776;50.798;6.430;2023-04-23T04:18:15;99353.31;;;13.23;63.17
19286;BME280;9776;50.798;6.430;2023-04-23T04:20:41;99356.97;;;13.22;63.29
19286;BME280;9776;50.798;6.430;2023-04-23T04:23:09;99358.00;;;13.21;63.16
19286;BME280;9776;50.798;6.430;2023-04-23T04:25:36;99359.63;;;13.22;63.09
19286;BME280;9776;50.798;6.430;2023-04-23T04:28:04;99361.28;;;13.23;63.21
19286;BME280;9776;50.798;6.430;2023-04-23T04:30:32;99359.44;;;13.24;63.39
19286;BME280;9776;50.798;6.430;2023-04-23T04:33:00;99358.25;;;13.26;63.26
19286;BME280;9776;50.798;6.430;2023-04-23T04:35:26;99352.94;;;13.26;63.15
19286;BME280;9776;50.798;6.430;2023-04-23T04:37:53;99355.38;;;13.28;63.26
19286;BME280;9776;50.798;6.430;2023-04-23T04:40:20;99365.19;;;13.27;63.59
19286;BME280;9776;50.798;6.430;2023-04-23T04:42:46;99363.16;;;13.29;63.61
19286;BME280;9776;50.798;6.430;2023-04-23T04:45:13;99359.91;;;13.27;63.76
19286;BME280;9776;50.798;6.430;2023-04-23T04:47:41;99367.47;;;13.30;63.78
19286;BME280;9776;50.798;6.430;2023-04-23T04:50:10;99371.56;;;13.33;63.43
19286;BME280;9776;50.798;6.430;2023-04-23T04:52:36;99373.38;;;13.32;63.79
19286;BME280;9776;50.798;6.430;2023-04-23T04:55:04;99374.63;;;13.36;63.69
19286;BME280;9776;50.798;6.430;2023-04-23T04:57:31;99367.88;;;13.34;63.66
19286;BME280;9776;50.798;6.430;2023-04-23T04:59:57;99370.81;;;13.39;63.84
19286;BME280;9776;50.798;6.430;2023-04-23T05:02:24;99365.28;;;13.40;63.60
19286;BME280;9776;50.798;6.430;2023-04-23T05:04:51;99372.25;;;13.41;63.63
19286;BME280;9776;50.798;6.430;2023-04-23T05:07:19;99368.16;;;13.39;64.07
19286;BME280;9776;50.798;6.430;2023-04-23T05:09:45;99366.94;;;13.41;63.66
19286;BME280;9776;50.798;6.430;2023-04-23T05:12:12;99369.22;;;13.44;63.81
19286;BME280;9776;50.798;6.430;2023-04-23T05:14:38;99366.56;;;13.44;63.88
19286;BME280;9776;50.798;6.430;2023-04-23T05:17:05;99368.00;;;13.47;63.83
19286;BME280;9776;50.798;6.430;2023-04-23T05:19:32;99368.63;;;13.49;63.80
19286;BME280;9776;50.798;6.430;2023-04-23T05:21:58;99363.78;;;13.52;63.88
19286;BME280;9776;50.798;6.430;2023-04-23T05:24:28;99365.41;;;13.53;63.85
19286;BME280;9776;50.798;6.430;2023-04-23T05:26:55;99364.22;;;13.56;63.62
19286;BME280;9776;50.798;6.430;2023-04-23T05:29:22;99369.31;;;13.57;63.74
19286;BME280;9776;50.798;6.430;2023-04-23T05:31:48;99368.94;;;13.60;63.68
19286;BME280;9776;50.798;6.430;2023-04-23T05:34:16;99369.56;;;13.62;63.92
19286;BME280;9776;50.798;6.430;2023-04-23T05:36:42;99368.34;;;13.65;63.80
19286;BME280;9776;50.798;6.430;2023-04-23T05:39:09;99373.47;;;13.67;63.78
19286;BME280;9776;50.798;6.430;2023-04-23T05:41:37;99360.00;;;13.68;63.92
19286;BME280;9776;50.798;6.430;2023-04-23T05:44:03;99374.53;;;13.72;63.60
19286;BME280;9776;50.798;6.430;2023-04-23T05:46:30;99379.91;;;13.79;63.69
19286;BME280;9776;50.798;6.430;2023-04-23T05:48:56;99366.44;;;13.80;63.69
19286;BME280;9776;50.798;6.430;2023-04-23T05:51:23;99367.31;;;13.87;63.66
19286;BME280;9776;50.798;6.430;2023-04-23T05:53:50;99372.25;;;13.97;63.48
19286;BME280;9776;50.798;6.430;2023-04-23T05:56:16;99378.81;;;14.01;63.48
19286;BME280;9776;50.798;6.430;2023-04-23T05:58:45;99373.50;;;14.01;63.46
19286;BME280;9776;50.798;6.430;2023-04-23T06:01:11;99369.84;;;14.02;63.64
19286;BME280;9776;50.798;6.430;2023-04-23T06:03:38;99369.47;;;14.05;63.67
19286;BME280;9776;50.798;6.430;2023-04-23T06:06:09;99372.13;;;14.05;63.51
19286;BME280;9776;50.798;6.430;2023-04-23T06:08:36;99372.34;;;14.10;63.70
19286;BME280;9776;50.798;6.430;2023-04-23T06:11:03;99372.56;;;14.15;63.81
19286;BME280;9776;50.798;6.430;2023-04-23T06:13:30;99376.47;;;14.19;63.68
19286;BME280;9776;50.798;6.430;2023-04-23T06:15:58;99375.66;;;14.18;63.65
19286;BME280;9776;50.798;6.430;2023-04-23T06:18:24;99382.63;;;14.19;63.54
19286;BME280;9776;50.798;6.430;2023-04-23T06:20:52;99372.41;;;14.23;63.69
19286;BME280;9776;50.798;6.430;2023-04-23T06:23:21;99366.97;;;14.31;63.75
19286;BME280;9776;50.798;6.430;2023-04-23T06:25:47;99363.72;;;14.36;63.63
19286;BME280;9776;50.798;6.430;2023-04-23T06:28:14;99360.72;;;14.45;63.45
19286;BME280;9776;50.798;6.430;2023-04-23T06:30:41;99366.06;;;14.58;63.06
19286;BME280;9776;50.798;6.430;2023-04-23T06:33:09;99363.66;;;14.70;63.02
19286;BME280;9776;50.798;6.430;2023-04-23T06:35:36;99354.09;;;14.75;62.62
19286;BME280;9776;50.798;6.430;2023-04-23T06:38:03;99359.00;;;14.78;62.78
19286;BME280;9776;50.798;6.430;2023-04-23T06:40:30;99367.81;;;14.86;62.46
19286;BME280;9776;50.798;6.430;2023-04-23T06:42:57;99357.00;;;14.94;62.57
19286;BME280;9776;50.798;6.430;2023-04-23T06:45:24;99354.97;;;15.02;62.10
19286;BME280;9776;50.798;6.430;2023-04-23T06:47:50;99352.72;;;15.12;62.28
19286;BME280;9776;50.798;6.430;2023-04-23T06:50:18;99348.47;;;15.24;61.91
19286;BME280;9776;50.798;6.430;2023-04-23T06:52:45;99354.63;;;15.38;61.39
19286;BME280;9776;50.798;6.430;2023-04-23T06:55:11;99351.19;;;15.57;61.23
19286;BME280;9776;50.798;6.430;2023-04-23T06:57:38;99351.97;;;15.84;60.53
19286;BME280;9776;50.798;6.430;2023-04-23T07:00:06;99356.47;;;15.90;60.10
19286;BME280;9776;50.798;6.430;2023-04-23T07:02:33;99357.28;;;15.90;60.12
19286;BME280;9776;50.798;6.430;2023-04-23T07:05:00;99351.75;;;15.92;59.85
19286;BME280;9776;50.798;6.430;2023-04-23T07:07:28;99347.03;;;16.01;59.94
19286;BME280;9776;50.798;6.430;2023-04-23T07:09:55;99338.00;;;16.15;59.40
19286;BME280;9776;50.798;6.430;2023-04-23T07:12:22;99340.16;;;16.44;58.59
19286;BME280;9776;50.798;6.430;2023-04-23T07:14:48;99341.78;;;16.89;57.80
19286;BME280;9776;50.798;6.430;2023-04-23T07:17:17;99336.94;;;17.42;56.54
19286;BME280;9776;50.798;6.430;2023-04-23T07:19:44;99340.31;;;17.31;56.21
19286;BME280;9776;50.798;6.430;2023-04-23T07:22:10;99341.34;;;16.99;56.85
19286;BME280;9776;50.798;6.430;2023-04-23T07:24:38;99339.03;;;17.34;56.21
19286;BME280;9776;50.798;6.430;2023-04-23T07:27:05;99328.09;;;17.91;54.59
19286;BME280;9776;50.798;6.430;2023-04-23T07:29:33;99322.34;;;18.49;53.66
19286;BME280;9776;50.798;6.430;2023-04-23T07:31:59;99317.34;;;19.12;52.04
19286;BME280;9776;50.798;6.430;2023-04-23T07:34:26;99321.41;;;19.67;50.75
19286;BME280;9776;50.798;6.430;2023-04-23T07:36:52;99312.31;;;19.92;49.78
19286;BME280;9776;50.798;6.430;2023-04-23T07:39:20;99320.47;;;20.08;48.95
19286;BME280;9776;50.798;6.430;2023-04-23T07:41:48;99319.88;;;20.06;48.29
19286;BME280;9776;50.798;6.430;2023-04-23T07:44:15;99322.41;;;20.24;47.70
19286;BME280;9776;50.798;6.430;2023-04-23T07:46:42;99323.69;;;20.45;46.89
19286;BME280;9776;50.798;6.430;2023-04-23T07:49:08;99318.38;;;20.90;45.78
19286;BME280;9776;50.798;6.430;2023-04-23T07:51:35;99316.75;;;21.17;45.00
19286;BME280;9776;50.798;6.430;2023-04-23T07:54:02;99310.09;;;21.36;44.51
19286;BME280;9776;50.798;6.430;2023-04-23T07:56:28;99306.63;;;21.91;43.28
19286;BME280;9776;50.798;6.430;2023-04-23T07:58:58;99299.56;;;22.23;42.44
19286;BME280;9776;50.798;6.430;2023-04-23T08:01:25;99294.06;;;22.56;41.78
19286;BME280;9776;50.798;6.430;2023-04-23T08:03:51;99303.38;;;22.71;41.53
19286;BME280;9776;50.798;6.430;2023-04-23T08:06:20;99295.78;;;22.94;40.85
19286;BME280;9776;50.798;6.430;2023-04-23T08:08:47;99290.44;;;23.58;39.59
19286;BME280;9776;50.798;6.430;2023-04-23T08:11:14;99290.22;;;23.64;39.05
19286;BME280;9776;50.798;6.430;2023-04-23T08:13:41;99291.84;;;23.65;38.88
19286;BME280;9776;50.798;6.430;2023-04-23T08:16:09;99287.50;;;23.59;38.84
19286;BME280;9776;50.798;6.430;2023-04-23T08:18:36;99283.91;;;23.86;38.30
19286;BME280;9776;50.798;6.430;2023-04-23T08:21:02;99280.84;;;24.14;37.89
19286;BME280;9776;50.798;6.430;2023-04-23T08:23:29;99280.06;;;24.23;37.23
19286;BME280;9776;50.798;6.430;2023-04-23T08:25:56;99277.41;;;24.28;36.76
19286;BME280;9776;50.798;6.430;2023-04-23T08:28:22;99275.28;;;24.46;35.73
19286;BME280;9776;50.798;6.430;2023-04-23T08:30:49;99265.97;;;24.83;34.96
19286;BME280;9776;50.798;6.430;2023-04-23T08:33:17;99265.44;;;25.17;34.08
19286;BME280;9776;50.798;6.430;2023-04-23T08:35:45;99272.44;;;24.82;34.56
19286;BME280;9776;50.798;6.430;2023-04-23T08:38:12;99270.59;;;24.16;35.44
19286;BME280;9776;50.798;6.430;2023-04-23T08:40:41;99271.50;;;23.90;35.74
19286;BME280;9776;50.798;6.430;2023-04-23T08:43:11;99264.63;;;23.67;35.90
19286;BME280;9776;50.798;6.430;2023-04-23T08:45:39;99268.84;;;23.95;35.62
19286;BME280;9776;50.798;6.430;2023-04-23T08:48:08;99272.56;;;23.84;35.65
19286;BME280;9776;50.798;6.430;2023-04-23T08:50:37;99267.53;;;23.55;36.05
19286;BME280;9776;50.798;6.430;2023-04-23T08:53:08;99270.63;;;23.37;36.60
19286;BME280;9776;50.798;6.430;2023-04-23T08:55:35;99269.50;;;23.70;36.01
19286;BME280;9776;50.798;6.430;2023-04-23T08:58:03;99264.19;;;23.75;35.74
19286;BME280;9776;50.798;6.430;2023-04-23T09:00:32;99277.91;;;24.20;35.08
19286;BME280;9776;50.798;6.430;2023-04-23T09:02:59;99267.59;;;24.85;33.97
19286;BME280;9776;50.798;6.430;2023-04-23T09:05:26;99269.66;;;24.57;34.32
19286;BME280;9776;50.798;6.430;2023-04-23T09:08:23;99259.91;;;24.41;34.47
19286;BME280;9776;50.798;6.430;2023-04-23T09:10:51;99271.72;;;24.30;34.35
19286;BME280;9776;50.798;6.430;2023-04-23T09:13:20;99264.50;;;23.89;34.85
19286;BME280;9776;50.798;6.430;2023-04-23T09:15:47;99268.84;;;23.53;35.37
19286;BME280;9776;50.798;6.430;2023-04-23T09:18:14;99263.81;;;23.61;35.35
19286;BME280;9776;50.798;6.430;2023-04-23T09:20:43;99260.47;;;23.49;35.42
19286;BME280;9776;50.798;6.430;2023-04-23T09:23:13;99272.72;;;22.72;36.28
19286;BME280;9776;50.798;6.430;2023-04-23T09:25:41;99266.72;;;21.99;37.34
19286;BME280;9776;50.798;6.430;2023-04-23T09:28:08;99253.94;;;21.52;38.40
19286;BME280;9776;50.798;6.430;2023-04-23T09:30:38;99254.88;;;21.24;38.76
19286;BME280;9776;50.798;6.430;2023-04-23T09:33:06;99244.97;;;20.96;39.24
19286;BME280;9776;50.798;6.430;2023-04-23T09:35:33;99249.84;;;20.82;39.30
19286;BME280;9776;50.798;6.430;2023-04-23T09:38:01;99247.13;;;20.66;39.23
19286;BME280;9776;50.798;6.430;2023-04-23T09:40:30;99248.91;;;20.60;39.12
19286;BME280;9776;50.798;6.430;2023-04-23T09:42:58;99238.78;;;20.22;39.55
19286;BME280;9776;50.798;6.430;2023-04-23T09:45:29;99250.19;;;20.18;39.64
19286;BME280;9776;50.798;6.430;2023-04-23T09:47:57;99249.19;;;20.07;40.26
19286;BME280;9776;50.798;6.430;2023-04-23T09:50:31;99254.72;;;20.17;39.94
19286;BME280;9776;50.798;6.430;2023-04-23T09:52:58;99253.78;;;20.35;39.73
19286;BME280;9776;50.798;6.430;2023-04-23T09:55:29;99241.50;;;20.51;39.09
19286;BME280;9776;50.798;6.430;2023-04-23T09:58:00;99249.59;;;21.12;38.46
19286;BME280;9776;50.798;6.430;2023-04-23T10:00:32;99253.56;;;21.81;37.32
19286;BME280;9776;50.798;6.430;2023-04-23T10:02:59;99242.22;;;22.18;36.39
19286;BME280;9776;50.798;6.430;2023-04-23T10:05:26;99241.00;;;22.03;36.17
19286;BME280;9776;50.798;6.430;2023-04-23T10:07:54;99233.25;;;21.69;36.66
19286;BME280;9776;50.798;6.430;2023-04-23T10:10:21;99238.69;;;21.35;37.04
19286;BME280;9776;50.798;6.430;2023-04-23T10:12:47;99239.03;;;20.77;38.08
19286;BME280;9776;50.798;6.430;2023-04-23T10:15:18;99235.97;;;20.29;38.60
19286;BME280;9776;50.798;6.430;2023-04-23T10:17:45;99240.75;;;20.15;38.71
19286;BME280;9776;50.798;6.430;2023-04-23T10:20:12;99233.69;;;20.09;38.99
19286;BME280;9776;50.798;6.430;2023-04-23T10:22:42;99240.66;;;20.10;39.21
19286;BME280;9776;50.798;6.430;2023-04-23T10:25:10;99245.13;;;19.93;38.66
19286;BME280;9776;50.798;6.430;2023-04-23T10:27:38;99233.06;;;19.79;38.61
19286;BME280;9776;50.798;6.430;2023-04-23T10:30:07;99233.06;;;19.67;38.57
19286;BME280;9776;50.798;6.430;2023-04-23T10:32:36;99235.59;;;19.74;38.48
19286;BME280;9776;50.798;6.430;2023-04-23T10:35:03;99239.72;;;20.16;37.37
19286;BME280;9776;50.798;6.430;2023-04-23T10:37:30;99232.13;;;20.98;36.32
19286;BME280;9776;50.798;6.430;2023-04-23T10:40:02;99225.69;;;21.66;35.56
19286;BME280;9776;50.798;6.430;2023-04-23T10:42:32;99205.56;;;21.68;35.28
19286;BME280;9776;50.798;6.430;2023-04-23T10:44:59;99198.97;;;21.37;36.03
19286;BME280;9776;50.798;6.430;2023-04-23T10:47:26;99216.84;;;20.82;36.63
19286;BME280;9776;50.798;6.430;2023-04-23T10:49:54;99205.06;;;20.38;37.24
19286;BME280;9776;50.798;6.430;2023-04-23T10:52:20;99210.38;;;20.10;37.79
19286;BME280;9776;50.798;6.430;2023-04-23T10:54:48;99206.41;;;19.72;37.53
19286;BME280;9776;50.798;6.430;2023-04-23T10:57:15;99193.16;;;19.43;37.49
19286;BME280;9776;50.798;6.430;2023-04-23T10:59:51;99196.28;;;19.16;37.79
19286;BME280;9776;50.798;6.430;2023-04-23T11:02:19;99209.78;;;19.10;37.82
19286;BME280;9776;50.798;6.430;2023-04-23T11:04:46;99202.22;;;19.30;38.05
19286;BME280;9776;50.798;6.430;2023-04-23T11:07:24;99195.53;;;19.39;37.49
19286;BME280;9776;50.798;6.430;2023-04-23T11:09:51;99197.22;;;19.57;37.49
19286;BME280;9776;50.798;6.430;2023-04-23T11:12:31;99201.97;;;19.66;37.33
19286;BME280;9776;50.798;6.430;2023-04-23T11:14:58;99190.22;;;19.79;37.58
19286;BME280;9776;50.798;6.430;2023-04-23T11:17:59;99186.69;;;19.90;37.44
19286;BME280;9776;50.798;6.430;2023-04-23T11:20:26;99193.78;;;20.24;36.80
19286;BME280;9776;50.798;6.430;2023-04-23T11:22:54;99183.31;;;20.34;36.45
19286;BME280;9776;50.798;6.430;2023-04-23T11:25:22;99174.13;;;20.19;36.38
19286;BME280;9776;50.798;6.430;2023-04-23T11:27:50;99173.78;;;20.27;36.37
19286;BME280;9776;50.798;6.430;2023-04-23T11:30:18;99161.56;;;20.48;36.24
19286;BME280;9776;50.798;6.430;2023-04-23T11:32:46;99165.75;;;20.44;36.56
19286;BME280;9776;50.798;6.430;2023-04-23T11:35:14;99160.25;;;20.50;36.45
19286;BME280;9776;50.798;6.430;2023-04-23T11:37:42;99148.50;;;20.68;35.99
19286;BME280;9776;50.798;6.430;2023-04-23T11:40:12;99144.03;;;21.07;35.59
19286;BME280;9776;50.798;6.430;2023-04-23T11:42:43;99134.03;;;21.79;34.37
19286;BME280;9776;50.798;6.430;2023-04-23T11:45:15;99133.97;;;22.81;32.83
19286;BME280;9776;50.798;6.430;2023-04-23T11:47:42;99127.19;;;23.52;31.79
19286;BME280;9776;50.798;6.430;2023-04-23T11:50:10;99116.22;;;23.73;31.55
19286;BME280;9776;50.798;6.430;2023-04-23T11:52:42;99118.38;;;23.20;32.49
19286;BME280;9776;50.798;6.430;2023-04-23T11:55:09;99107.22;;;22.64;33.34
19286;BME280;9776;50.798;6.430;2023-04-23T11:57:40;99096.75;;;22.68;33.69
19286;BME280;9776;50.798;6.430;2023-04-23T12:00:12;99097.06;;;23.13;33.18
19286;BME280;9776;50.798;6.430;2023-04-23T12:02:49;99094.88;;;23.52;32.59
19286;BME280;9776;50.798;6.430;2023-04-23T12:05:18;99084.47;;;23.91;32.17
19286;BME280;9776;50.798;6.430;2023-04-23T12:07:47;99081.88;;;24.66;31.25
19286;BME280;9776;50.798;6.430;2023-04-23T12:10:16;99075.31;;;25.23;30.69
19286;BME280;9776;50.798;6.430;2023-04-23T12:12:48;99070.28;;;24.91;31.17
19286;BME280;9776;50.798;6.430;2023-04-23T12:15:14;99075.91;;;24.09;32.02
19286;BME280;9776;50.798;6.430;2023-04-23T12:17:41;99065.38;;;23.25;33.02
19286;BME280;9776;50.798;6.430;2023-04-23T12:20:09;99062.69;;;22.46;33.85
19286;BME280;9776;50.798;6.430;2023-04-23T12:22:37;99057.78;;;22.38;34.18
19286;BME280;9776;50.798;6.430;2023-04-23T12:25:04;99050.97;;;22.63;33.96
19286;BME280;9776;50.798;6.430;2023-04-23T12:27:38;99061.00;;;22.72;33.27
19286;BME280;9776;50.798;6.430;2023-04-23T12:30:07;99062.44;;;22.16;32.93
19286;BME280;9776;50.798;6.430;2023-04-23T12:32:36;99053.34;;;21.74;33.00
19286;BME280;9776;50.798;6.430;2023-04-23T12:35:03;99042.84;;;21.94;32.47
19286;BME280;9776;50.798;6.430;2023-04-23T12:37:34;99055.97;;;22.86;31.66
19286;BME280;9776;50.798;6.430;2023-04-23T12:40:01;99039.63;;;22.97;31.74
19286;BME280;9776;50.798;6.430;2023-04-23T12:42:33;99032.44;;;23.08;31.79
19286;BME280;9776;50.798;6.430;2023-04-23T12:45:08;99032.31;;;22.83;31.96
19286;BME280;9776;50.798;6.430;2023-04-23T12:47:35;99023.69;;;22.44;32.80
19286;BME280;9776;50.798;6.430;2023-04-23T12:50:02;99034.81;;;22.26;33.24
19286;BME280;9776;50.798;6.430;2023-04-23T12:52:30;99019.03;;;21.76;33.95
19286;BME280;9776;50.798;6.430;2023-04-23T12:54:56;99020.41;;;21.57;34.33
19286;BME280;9776;50.798;6.430;2023-04-23T12:57:24;99017.69;;;21.30;34.58
19286;BME280;9776;50.798;6.430;2023-04-23T12:59:51;99025.06;;;21.01;35.06
19286;BME280;9776;50.798;6.430;2023-04-23T13:02:21;99014.34;;;20.79;35.34
19286;BME280;9776;50.798;6.430;2023-04-23T13:04:47;99007.66;;;20.82;35.67
19286;BME280;9776;50.798;6.430;2023-04-23T13:07:14;99004.16;;;20.81;35.49
19286;BME280;9776;50.798;6.430;2023-04-23T13:09:40;99002.78;;;20.79;35.47
19286;BME280;9776;50.798;6.430;2023-04-23T13:12:07;99003.16;;;20.49;36.07